Time;durP1;ratioP1;P1;durP2;ratioP2;P2;SDS_P1;SDS_P2;PMS_P1;PMS_P2;Temp;Humidity;BMP_temperature;BMP_pressure;BME280_temperature;BME280_humidity;BME280_pressure;Samples;Min_cycle;Max_cycle;Signal;HPM_P1;HPM_P2
2021/08/29 00:01:50;;;;;;;11.82;3.78;;;16.10;99.90;;;;;;5097252;27;20351;-68
2021/08/29 00:04:16;;;;;;;10.88;3.20;;;16.00;99.90;;;;;;5095282;27;20058;-68
2021/08/29 00:06:41;;;;;;;13.68;3.30;;;16.10;99.90;;;;;;5096001;28;20082;-68
2021/08/29 00:09:07;;;;;;;10.30;3.25;;;16.00;99.90;;;;;;5095273;27;20051;-68
2021/08/29 00:11:34;;;;;;;9.85;2.95;;;16.00;99.90;;;;;;5095958;28;20039;-68
2021/08/29 00:13:59;;;;;;;11.75;3.65;;;16.00;99.90;;;;;;5124836;27;20473;-67
2021/08/29 00:16:25;;;;;;;11.50;3.33;;;16.00;99.90;;;;;;5094196;27;20047;-68
2021/08/29 00:18:51;;;;;;;13.82;3.30;;;16.00;99.90;;;;;;5095716;27;20090;-67
2021/08/29 00:21:16;;;;;;;8.27;3.35;;;16.00;99.90;;;;;;5097218;27;21627;-68
2021/08/29 00:23:42;;;;;;;10.98;3.72;;;16.00;99.90;;;;;;5097602;27;20682;-68
2021/08/29 00:26:07;;;;;;;6.78;3.17;;;16.00;99.90;;;;;;5095339;27;20134;-68
2021/08/29 00:28:33;;;;;;;11.95;3.50;;;16.00;99.90;;;;;;5096058;27;20043;-68
2021/08/29 00:30:59;;;;;;;8.25;3.03;;;16.00;99.90;;;;;;5099082;27;20187;-68
2021/08/29 00:33:24;;;;;;;16.33;4.20;;;16.00;99.90;;;;;;5093633;28;20522;-68
2021/08/29 00:35:52;;;;;;;9.88;3.42;;;16.00;99.90;;;;;;5097399;28;20040;-68
2021/08/29 00:38:18;;;;;;;9.90;3.63;;;16.00;99.90;;;;;;5096083;27;20043;-68
2021/08/29 00:40:43;;;;;;;11.70;3.40;;;16.00;99.90;;;;;;5098048;28;20044;-68
2021/08/29 00:43:09;;;;;;;11.32;3.65;;;16.00;99.90;;;;;;5097919;27;20114;-68
2021/08/29 00:45:35;;;;;;;13.15;3.55;;;16.00;99.90;;;;;;5094068;27;20701;-68
2021/08/29 00:48:01;;;;;;;10.45;3.22;;;16.00;99.90;;;;;;5094979;27;20152;-68
2021/08/29 00:50:28;;;;;;;21.85;3.40;;;16.00;99.90;;;;;;5097360;27;20135;-68
2021/08/29 00:52:55;;;;;;;12.10;4.05;;;16.00;99.90;;;;;;5095772;28;20412;-68
2021/08/29 00:55:21;;;;;;;12.70;3.40;;;16.00;99.90;;;;;;5125306;27;20135;-68
2021/08/29 00:57:46;;;;;;;7.43;3.08;;;16.00;99.90;;;;;;5097383;28;20118;-68
2021/08/29 01:00:13;;;;;;;9.98;3.17;;;16.00;99.90;;;;;;5094303;27;20036;-68
2021/08/29 01:02:39;;;;;;;10.07;3.05;;;16.00;99.90;;;;;;5098063;28;20035;-68
2021/08/29 01:05:20;;;;;;;13.30;3.33;;;16.00;99.90;;;;;;5094915;28;20032;-68
2021/08/29 01:08:02;;;;;;;11.25;3.33;;;16.00;99.90;;;;;;5098201;28;20043;-68
2021/08/29 01:10:41;;;;;;;9.82;3.22;;;16.00;99.90;;;;;;5092705;28;20062;-68
2021/08/29 01:13:09;;;;;;;11.65;4.18;;;16.10;99.90;;;;;;5095753;28;20055;-68
2021/08/29 01:15:37;;;;;;;9.88;3.47;;;16.00;99.90;;;;;;5094936;28;20404;-68
2021/08/29 01:18:02;;;;;;;12.15;4.30;;;16.00;99.90;;;;;;5095102;28;20086;-68
2021/08/29 01:21:18;;;;;;;8.52;3.10;;;16.00;99.90;;;;;;5091839;28;20051;-68
2021/08/29 01:23:47;;;;;;;9.50;3.78;;;16.00;99.90;;;;;;5093932;28;20392;-68
2021/08/29 01:26:18;;;;;;;8.70;2.80;;;16.00;99.90;;;;;;5096926;27;20040;-68
2021/08/29 01:28:56;;;;;;;12.00;3.92;;;16.00;99.90;;;;;;5095218;28;20039;-68
2021/08/29 01:31:24;;;;;;;22.20;5.18;;;16.00;99.90;;;;;;5095512;28;20423;-68
2021/08/29 01:33:51;;;;;;;7.70;3.38;;;16.00;99.90;;;;;;5095459;28;20433;-68
2021/08/29 01:36:18;;;;;;;8.10;3.58;;;16.00;99.90;;;;;;5094175;28;20470;-67
2021/08/29 01:38:45;;;;;;;17.90;4.97;;;16.00;99.90;;;;;;5094555;28;20040;-67
2021/08/29 01:41:13;;;;;;;7.82;3.85;;;16.00;99.90;;;;;;5092636;28;20055;-68
2021/08/29 01:43:40;;;;;;;11.82;3.60;;;16.00;99.90;;;;;;5096398;28;20506;-68
2021/08/29 01:46:07;;;;;;;11.43;3.25;;;16.00;99.90;;;;;;5098378;28;20044;-68
2021/08/29 01:48:32;;;;;;;12.35;3.35;;;15.90;99.90;;;;;;5125828;27;20035;-68
2021/08/29 01:50:58;;;;;;;11.63;3.90;;;15.90;99.90;;;;;;5100189;27;20473;-68
2021/08/29 01:53:23;;;;;;;12.35;4.47;;;15.90;99.90;;;;;;5098485;27;20033;-68
2021/08/29 01:55:49;;;;;;;11.63;4.00;;;15.90;99.90;;;;;;5098168;28;20051;-68
2021/08/29 01:58:16;;;;;;;10.70;4.35;;;16.00;99.90;;;;;;5103333;27;20485;-68
2021/08/29 02:00:57;;;;;;;10.05;4.07;;;16.00;99.90;;;;;;5100643;27;20043;-68
2021/08/29 02:03:24;;;;;;;15.65;5.38;;;16.00;99.90;;;;;;5098706;27;20063;-68
2021/08/29 02:05:58;;;;;;;7.35;3.35;;;16.00;99.90;;;;;;5099316;27;20077;-68
2021/08/29 02:08:25;;;;;;;7.28;3.00;;;16.00;99.90;;;;;;5099446;27;20057;-68
2021/08/29 02:10:52;;;;;;;9.27;4.53;;;15.90;99.90;;;;;;5099580;27;20104;-68
2021/08/29 02:13:22;;;;;;;10.43;3.47;;;15.90;99.90;;;;;;5103242;27;20130;-68
2021/08/29 02:15:56;;;;;;;11.13;3.58;;;16.00;99.90;;;;;;5098930;27;20036;-67
2021/08/29 02:18:24;;;;;;;8.10;3.30;;;16.00;99.90;;;;;;5099458;28;20086;-68
2021/08/29 02:20:50;;;;;;;10.85;3.92;;;16.00;99.90;;;;;;5098213;27;20298;-68
2021/08/29 02:23:16;;;;;;;10.45;3.63;;;16.00;99.90;;;;;;5097833;27;20077;-67
2021/08/29 02:25:49;;;;;;;13.77;3.80;;;16.00;99.90;;;;;;5103437;28;20047;-67
2021/08/29 02:28:15;;;;;;;10.35;3.40;;;16.00;99.90;;;;;;5100145;27;20122;-68
2021/08/29 02:30:42;;;;;;;9.85;3.22;;;16.00;99.90;;;;;;5103194;27;20048;-67
2021/08/29 02:33:10;;;;;;;8.43;3.15;;;16.00;99.90;;;;;;5107284;27;20622;-68
2021/08/29 02:35:37;;;;;;;13.25;4.50;;;16.00;99.90;;;;;;5133036;27;20043;-68
2021/08/29 02:38:04;;;;;;;9.88;3.45;;;16.00;99.90;;;;;;5109848;27;20081;-68
2021/08/29 02:40:37;;;;;;;11.98;4.38;;;16.00;99.90;;;;;;5108136;27;20039;-68
2021/08/29 02:43:02;;;;;;;8.60;2.70;;;16.00;99.90;;;;;;5104717;27;20104;-68
2021/08/29 02:45:29;;;;;;;8.00;2.88;;;16.00;99.90;;;;;;5102674;28;20677;-68
2021/08/29 02:47:55;;;;;;;8.90;3.72;;;16.00;99.90;;;;;;5104076;27;20036;-68
2021/08/29 02:50:21;;;;;;;11.02;3.00;;;16.00;99.90;;;;;;5105824;27;20040;-67
2021/08/29 02:52:47;;;;;;;9.73;3.45;;;15.90;99.90;;;;;;5102336;27;20157;-68
2021/08/29 02:55:15;;;;;;;13.23;3.30;;;15.90;99.90;;;;;;5107765;28;20122;-68
2021/08/29 02:57:44;;;;;;;15.95;4.32;;;16.00;99.90;;;;;;5107161;27;20040;-68
2021/08/29 03:00:13;;;;;;;9.40;3.30;;;16.00;99.90;;;;;;5100472;27;20047;-67
2021/08/29 03:02:42;;;;;;;9.52;3.03;;;16.00;99.90;;;;;;5106626;27;20127;-67
2021/08/29 03:05:09;;;;;;;7.10;2.67;;;15.90;99.90;;;;;;5107002;27;20493;-67
2021/08/29 03:07:35;;;;;;;8.05;2.78;;;15.90;99.90;;;;;;5130263;27;20044;-67
2021/08/29 03:10:01;;;;;;;9.23;2.60;;;15.90;99.90;;;;;;5107816;27;20061;-67
2021/08/29 03:12:27;;;;;;;12.80;2.92;;;15.90;99.90;;;;;;5108852;27;20043;-67
2021/08/29 03:14:54;;;;;;;7.57;2.60;;;15.90;99.90;;;;;;5104112;27;20035;-68
2021/08/29 03:17:21;;;;;;;8.85;2.30;;;15.90;99.90;;;;;;5103910;27;20119;-68
2021/08/29 03:19:49;;;;;;;7.70;2.80;;;15.90;99.90;;;;;;5128081;27;20691;-68
2021/08/29 03:22:15;;;;;;;11.23;3.03;;;15.90;99.90;;;;;;5103414;28;20496;-67
2021/08/29 03:24:41;;;;;;;21.27;4.43;;;15.90;99.90;;;;;;5102247;27;20038;-67
2021/08/29 03:27:08;;;;;;;10.57;3.10;;;15.90;99.90;;;;;;5107976;27;20034;-67
2021/08/29 03:29:33;;;;;;;8.88;2.60;;;15.90;99.90;;;;;;5130531;27;20564;-68
2021/08/29 03:31:59;;;;;;;11.63;2.72;;;15.90;99.90;;;;;;5104023;27;20043;-68
2021/08/29 03:34:26;;;;;;;11.18;2.88;;;15.90;99.90;;;;;;5101001;27;20063;-67
2021/08/29 03:36:52;;;;;;;7.25;2.70;;;15.90;99.90;;;;;;5102939;27;20039;-67
2021/08/29 03:39:18;;;;;;;12.75;3.10;;;15.90;99.90;;;;;;5087727;28;20040;-68
2021/08/29 03:41:45;;;;;;;12.68;3.55;;;15.90;99.90;;;;;;5104459;28;20080;-68
2021/08/29 03:44:12;;;;;;;10.40;2.75;;;15.90;99.90;;;;;;5100243;27;20069;-67
2021/08/29 03:46:39;;;;;;;13.00;3.00;;;15.90;99.90;;;;;;5105966;27;20031;-67
2021/08/29 03:49:05;;;;;;;10.40;3.28;;;15.90;99.90;;;;;;5089974;27;20057;-68
2021/08/29 03:51:33;;;;;;;8.40;3.30;;;15.90;99.90;;;;;;5108676;27;20488;-68
2021/08/29 03:53:59;;;;;;;10.65;2.70;;;15.90;99.90;;;;;;5109291;27;20115;-68
2021/08/29 03:56:26;;;;;;;8.40;2.83;;;16.00;99.90;;;;;;5108187;27;20079;-68
2021/08/29 03:58:51;;;;;;;11.38;3.25;;;15.90;99.90;;;;;;5108579;27;20101;-68
2021/08/29 04:01:17;;;;;;;11.50;3.30;;;15.90;99.90;;;;;;5100213;27;20040;-68
2021/08/29 04:03:43;;;;;;;12.10;2.30;;;15.90;99.90;;;;;;5106485;28;20065;-68
2021/08/29 04:06:12;;;;;;;8.38;2.33;;;15.90;99.90;;;;;;5105481;27;20431;-67
2021/08/29 04:08:44;;;;;;;9.20;2.97;;;15.90;99.90;;;;;;5105216;28;20063;-67
2021/08/29 04:11:10;;;;;;;11.40;2.80;;;15.90;99.90;;;;;;5108551;27;20500;-68
2021/08/29 04:13:37;;;;;;;13.75;3.17;;;15.90;99.90;;;;;;5107563;27;20100;-67
2021/08/29 04:16:04;;;;;;;9.40;2.90;;;15.90;99.90;;;;;;5103383;27;20039;-67
2021/08/29 04:18:44;;;;;;;8.32;2.83;;;15.90;99.90;;;;;;5102274;27;20085;-67
2021/08/29 04:21:12;;;;;;;8.93;2.58;;;15.90;99.90;;;;;;5099954;27;20031;-67
2021/08/29 04:23:38;;;;;;;12.90;2.58;;;15.90;99.90;;;;;;5105679;27;20036;-67
2021/08/29 04:26:04;;;;;;;9.85;2.75;;;15.90;99.90;;;;;;5108367;27;20085;-67
2021/08/29 04:28:30;;;;;;;6.90;2.38;;;15.80;99.90;;;;;;5102953;27;20046;-67
2021/08/29 04:30:59;;;;;;;10.23;3.22;;;15.90;99.90;;;;;;5108264;27;20488;-67
2021/08/29 04:33:26;;;;;;;6.90;2.78;;;15.90;99.90;;;;;;5087108;27;20051;-67
2021/08/29 04:35:52;;;;;;;11.25;3.42;;;15.90;99.90;;;;;;5103597;27;20035;-67
2021/08/29 04:38:19;;;;;;;12.10;2.78;;;15.90;99.90;;;;;;5101872;28;20046;-67
2021/08/29 04:40:45;;;;;;;12.05;2.92;;;15.90;99.90;;;;;;5103638;28;20500;-67
2021/08/29 04:43:10;;;;;;;15.27;4.70;;;16.00;99.90;;;;;;5103512;27;20036;-67
2021/08/29 04:45:36;;;;;;;10.40;3.22;;;16.00;99.90;;;;;;5107148;27;20435;-67
2021/08/29 04:48:02;;;;;;;9.63;2.85;;;15.90;99.90;;;;;;5103524;27;20046;-68
2021/08/29 04:50:29;;;;;;;14.43;2.90;;;16.00;99.90;;;;;;5107056;27;20039;-67
2021/08/29 04:52:55;;;;;;;12.68;2.80;;;15.90;99.90;;;;;;5106259;27;20075;-67
2021/08/29 04:55:20;;;;;;;9.35;3.85;;;15.90;99.90;;;;;;5104758;27;20073;-67
2021/08/29 04:57:46;;;;;;;7.78;2.65;;;16.00;99.90;;;;;;5106463;28;20552;-67
2021/08/29 05:00:11;;;;;;;12.57;3.22;;;15.90;99.90;;;;;;5106214;28;20035;-67
2021/08/29 05:02:37;;;;;;;8.63;2.88;;;15.90;99.90;;;;;;5104145;28;20454;-67
2021/08/29 05:05:03;;;;;;;12.20;3.13;;;15.90;99.90;;;;;;5105284;27;20472;-67
2021/08/29 05:07:30;;;;;;;15.18;3.42;;;15.90;99.90;;;;;;5104375;28;20045;-67
2021/08/29 05:09:55;;;;;;;12.27;3.53;;;15.90;99.90;;;;;;5104730;28;20047;-67
2021/08/29 05:12:21;;;;;;;14.80;3.53;;;15.90;99.90;;;;;;5102194;28;20031;-67
2021/08/29 05:14:47;;;;;;;9.93;3.30;;;15.90;99.90;;;;;;5095460;28;20064;-67
2021/08/29 05:17:12;;;;;;;16.17;3.58;;;15.90;99.90;;;;;;5093233;28;20130;-67
2021/08/29 05:19:38;;;;;;;11.20;3.53;;;15.90;99.90;;;;;;5099702;27;20046;-67
2021/08/29 05:22:03;;;;;;;17.23;3.50;;;15.90;99.90;;;;;;5097133;28;20050;-67
2021/08/29 05:24:29;;;;;;;13.43;3.33;;;15.90;99.90;;;;;;5130798;27;20129;-68
2021/08/29 05:26:55;;;;;;;18.27;4.15;;;16.00;99.90;;;;;;5099833;28;20036;-68
2021/08/29 05:29:20;;;;;;;14.48;3.55;;;15.90;99.90;;;;;;5098950;28;20028;-68
2021/08/29 05:31:46;;;;;;;12.10;2.83;;;15.90;99.90;;;;;;5100040;28;20157;-68
2021/08/29 05:34:12;;;;;;;6.15;2.17;;;16.00;99.90;;;;;;5099178;27;20050;-68
2021/08/29 05:36:37;;;;;;;8.73;2.42;;;15.90;99.90;;;;;;5102863;28;20047;-68
2021/08/29 05:39:03;;;;;;;7.53;2.30;;;15.90;99.90;;;;;;5100232;28;20039;-68
2021/08/29 05:41:28;;;;;;;9.82;2.28;;;15.90;99.90;;;;;;5095782;28;20044;-68
2021/08/29 05:43:54;;;;;;;7.90;2.65;;;15.90;99.90;;;;;;5104333;27;20028;-68
2021/08/29 05:46:19;;;;;;;11.93;2.92;;;15.90;99.90;;;;;;5098932;27;20084;-68
2021/08/29 05:48:47;;;;;;;12.50;3.33;;;15.80;99.90;;;;;;5097743;27;20091;-68
2021/08/29 05:51:13;;;;;;;8.32;2.30;;;15.80;99.90;;;;;;5098699;27;20097;-68
2021/08/29 05:53:38;;;;;;;9.23;2.88;;;15.80;99.90;;;;;;5101022;27;20036;-67
2021/08/29 05:56:04;;;;;;;12.05;3.10;;;15.80;99.90;;;;;;5100902;27;20501;-67
2021/08/29 05:58:30;;;;;;;12.70;3.20;;;15.80;99.90;;;;;;5101266;27;20389;-68
2021/08/29 06:00:56;;;;;;;15.25;3.15;;;15.80;99.90;;;;;;5097997;27;20047;-68
2021/08/29 06:03:21;;;;;;;13.60;3.20;;;15.70;99.90;;;;;;5096798;27;20066;-68
2021/08/29 06:05:47;;;;;;;10.80;3.70;;;15.70;99.90;;;;;;5099225;27;20043;-68
2021/08/29 06:08:13;;;;;;;10.43;2.67;;;15.70;99.90;;;;;;5100967;27;20093;-68
2021/08/29 06:10:38;;;;;;;14.60;4.35;;;15.70;99.90;;;;;;5100200;27;20043;-68
2021/08/29 06:13:04;;;;;;;10.63;3.28;;;15.70;99.90;;;;;;5098905;27;20648;-68
2021/08/29 06:15:29;;;;;;;11.88;2.67;;;15.70;99.90;;;;;;5098946;27;20035;-68
2021/08/29 06:17:55;;;;;;;10.98;2.22;;;15.60;99.90;;;;;;5128379;27;20039;-68
2021/08/29 06:20:21;;;;;;;13.23;3.38;;;15.60;99.90;;;;;;5097645;28;20075;-68
2021/08/29 06:22:46;;;;;;;10.82;3.13;;;15.70;99.90;;;;;;5096666;27;20085;-68
2021/08/29 06:25:12;;;;;;;13.00;2.72;;;15.60;99.90;;;;;;5101073;27;20039;-68
2021/08/29 06:27:38;;;;;;;10.63;2.33;;;15.60;99.90;;;;;;5102525;27;20051;-67
2021/08/29 06:30:04;;;;;;;12.77;2.95;;;15.60;99.90;;;;;;5097966;27;20050;-67
2021/08/29 06:32:30;;;;;;;15.73;4.18;;;15.60;99.90;;;;;;5101136;27;20101;-68
2021/08/29 06:34:55;;;;;;;10.00;2.42;;;15.60;99.90;;;;;;5100909;27;20517;-68
2021/08/29 06:37:21;;;;;;;9.18;3.03;;;15.60;99.90;;;;;;5104975;27;20417;-68
2021/08/29 06:39:46;;;;;;;9.10;2.70;;;15.60;99.90;;;;;;5095986;27;20393;-68
2021/08/29 06:42:12;;;;;;;12.68;2.50;;;15.60;99.90;;;;;;5103279;27;20632;-68
2021/08/29 06:44:38;;;;;;;11.27;2.67;;;15.60;99.90;;;;;;5098728;27;20466;-68
2021/08/29 06:47:03;;;;;;;13.50;3.45;;;15.60;99.90;;;;;;5094273;27;20043;-68
2021/08/29 06:49:29;;;;;;;8.88;2.75;;;15.60;99.90;;;;;;5127960;27;20044;-68
2021/08/29 06:51:55;;;;;;;11.65;2.65;;;15.60;99.90;;;;;;5094928;27;20047;-67
2021/08/29 06:54:20;;;;;;;14.55;2.72;;;15.60;99.90;;;;;;5096262;27;20053;-67
2021/08/29 06:56:46;;;;;;;18.45;3.40;;;15.60;99.90;;;;;;5096335;27;20036;-67
2021/08/29 06:59:11;;;;;;;9.82;3.08;;;15.60;99.90;;;;;;5098786;27;20040;-68
2021/08/29 07:01:37;;;;;;;14.65;2.90;;;15.60;99.90;;;;;;5097060;28;20069;-68
2021/08/29 07:04:03;;;;;;;12.30;2.88;;;15.60;99.90;;;;;;5096345;27;20035;-68
2021/08/29 07:06:29;;;;;;;11.48;3.22;;;15.60;99.90;;;;;;5127735;27;20031;-68
2021/08/29 07:08:54;;;;;;;15.10;2.63;;;15.60;99.90;;;;;;5130346;27;20144;-68
2021/08/29 07:11:20;;;;;;;12.38;2.60;;;15.70;99.90;;;;;;5101115;27;20478;-67
2021/08/29 07:13:45;;;;;;;13.65;2.92;;;15.70;99.90;;;;;;5100473;27;20039;-68
2021/08/29 07:16:11;;;;;;;13.10;2.88;;;15.70;99.90;;;;;;5101940;27;20051;-68
2021/08/29 07:18:37;;;;;;;12.88;2.90;;;15.80;99.90;;;;;;5102068;27;20039;-68
2021/08/29 07:21:02;;;;;;;11.00;3.65;;;15.80;99.90;;;;;;5098008;27;20648;-68
2021/08/29 07:23:29;;;;;;;11.55;2.67;;;15.80;99.90;;;;;;5095882;27;20506;-68
2021/08/29 07:25:56;;;;;;;13.57;3.20;;;15.90;99.90;;;;;;5096066;28;20684;-68
2021/08/29 07:28:21;;;;;;;16.08;3.00;;;15.90;99.90;;;;;;5095788;27;20035;-68
2021/08/29 07:30:47;;;;;;;15.13;3.22;;;15.90;99.90;;;;;;5096999;28;20040;-68
2021/08/29 07:33:13;;;;;;;14.82;3.03;;;15.90;99.90;;;;;;5096516;28;20036;-68
2021/08/29 07:35:38;;;;;;;7.13;2.45;;;15.90;99.90;;;;;;5099604;27;20043;-67
2021/08/29 07:38:05;;;;;;;11.38;2.53;;;15.90;99.90;;;;;;5096660;28;20046;-67
2021/08/29 07:40:31;;;;;;;12.70;2.35;;;16.00;99.90;;;;;;5097627;27;20048;-67
2021/08/29 07:42:57;;;;;;;9.60;2.70;;;16.00;99.90;;;;;;5098206;27;20036;-68
2021/08/29 07:45:23;;;;;;;13.60;3.75;;;16.00;99.90;;;;;;5095342;28;20044;-67
2021/08/29 07:47:54;;;;;;;12.40;3.13;;;15.90;99.90;;;;;;5097520;27;20048;-68
2021/08/29 07:50:22;;;;;;;11.35;2.92;;;16.00;99.90;;;;;;5093753;27;20051;-68
2021/08/29 07:52:48;;;;;;;12.13;2.83;;;16.00;99.90;;;;;;5094646;27;20042;-68
2021/08/29 07:55:14;;;;;;;9.48;3.05;;;16.00;99.90;;;;;;5097390;27;20043;-68
2021/08/29 07:57:39;;;;;;;11.60;2.85;;;16.00;99.90;;;;;;5100500;27;20039;-68
2021/08/29 08:00:06;;;;;;;9.55;3.03;;;16.00;99.90;;;;;;5100308;28;20119;-68
2021/08/29 08:02:31;;;;;;;10.75;2.85;;;16.00;99.90;;;;;;5102898;27;20036;-68
2021/08/29 08:04:57;;;;;;;10.15;2.42;;;16.10;99.90;;;;;;5102819;28;20400;-68
2021/08/29 08:07:23;;;;;;;8.13;2.38;;;16.00;99.90;;;;;;5106054;27;20074;-68
2021/08/29 08:09:49;;;;;;;7.68;2.30;;;16.10;99.90;;;;;;5104089;27;20432;-68
2021/08/29 08:12:14;;;;;;;7.35;2.67;;;16.10;99.90;;;;;;5103304;28;20031;-68
2021/08/29 08:14:40;;;;;;;8.48;2.80;;;16.10;99.90;;;;;;5102290;27;20066;-68
2021/08/29 08:17:06;;;;;;;10.98;3.63;;;16.10;99.90;;;;;;5104073;27;20123;-68
2021/08/29 08:19:33;;;;;;;9.43;2.88;;;16.10;99.90;;;;;;5130581;27;20052;-68
2021/08/29 08:21:59;;;;;;;6.78;2.38;;;16.10;99.90;;;;;;5086091;28;20768;-68
2021/08/29 08:24:25;;;;;;;8.32;3.30;;;16.20;99.90;;;;;;5104845;28;20053;-68
2021/08/29 08:26:51;;;;;;;9.38;3.35;;;16.20;99.90;;;;;;5104017;28;20469;-68
2021/08/29 08:29:16;;;;;;;7.95;2.67;;;16.20;99.90;;;;;;5104443;27;20764;-68
2021/08/29 08:31:42;;;;;;;10.05;2.80;;;16.30;99.90;;;;;;5102239;27;20377;-68
2021/08/29 08:34:08;;;;;;;10.00;2.65;;;16.40;99.90;;;;;;5102938;27;20549;-68
2021/08/29 08:36:33;;;;;;;10.70;3.00;;;16.40;99.90;;;;;;5100333;28;20165;-68
2021/08/29 08:39:00;;;;;;;9.40;2.65;;;16.50;99.90;;;;;;5108454;27;20039;-68
2021/08/29 08:41:26;;;;;;;13.30;3.80;;;16.50;99.90;;;;;;5104051;27;20044;-68
2021/08/29 08:43:52;;;;;;;11.63;3.20;;;16.60;99.90;;;;;;5098417;27;20039;-68
2021/08/29 08:46:22;;;;;;;11.35;4.18;;;16.60;99.90;;;;;;5101369;28;20092;-68
2021/08/29 08:48:51;;;;;;;11.95;2.83;;;16.70;99.90;;;;;;5101806;28;20028;-68
2021/08/29 08:51:24;;;;;;;12.95;3.83;;;16.70;99.90;;;;;;5100631;27;20050;-69
2021/08/29 08:53:54;;;;;;;12.85;3.20;;;16.70;99.90;;;;;;5102094;27;20047;-69
2021/08/29 08:56:21;;;;;;;10.25;3.80;;;16.80;99.90;;;;;;5102258;27;20111;-68
2021/08/29 08:58:47;;;;;;;13.95;3.42;;;16.90;99.90;;;;;;5100390;28;20043;-69
2021/08/29 09:01:13;;;;;;;15.27;3.30;;;17.00;99.90;;;;;;5099216;28;20039;-68
2021/08/29 09:03:40;;;;;;;14.52;3.65;;;17.00;99.90;;;;;;5092718;28;20096;-69
2021/08/29 09:06:06;;;;;;;12.30;3.40;;;17.00;99.90;;;;;;5102726;27;20047;-68
2021/08/29 09:08:37;;;;;;;12.57;4.55;;;17.10;99.90;;;;;;5099850;28;20119;-68
2021/08/29 09:11:03;;;;;;;14.85;3.83;;;17.20;99.90;;;;;;5100600;28;20094;-68
2021/08/29 09:13:47;;;;;;;13.27;3.72;;;17.20;99.90;;;;;;5099273;28;20389;-68
2021/08/29 09:16:14;;;;;;;10.43;4.38;;;17.30;99.90;;;;;;5094433;28;20093;-68
2021/08/29 09:18:47;;;;;;;12.55;3.67;;;17.30;99.90;;;;;;5100989;28;20031;-68
2021/08/29 09:21:22;;;;;;;13.65;3.45;;;17.30;99.90;;;;;;5097739;28;20039;-68
2021/08/29 09:23:47;;;;;;;14.73;4.05;;;17.30;99.90;;;;;;5101785;28;20039;-68
2021/08/29 09:26:15;;;;;;;11.68;3.83;;;17.30;99.90;;;;;;5103920;28;20119;-68
2021/08/29 09:28:41;;;;;;;12.50;3.53;;;17.30;99.90;;;;;;5099001;28;20075;-68
2021/08/29 09:31:06;;;;;;;10.93;3.60;;;17.40;99.90;;;;;;5098783;28;20036;-68
2021/08/29 09:33:33;;;;;;;10.77;4.05;;;17.40;99.90;;;;;;5098667;28;20390;-68
2021/08/29 09:35:58;;;;;;;13.35;3.05;;;17.40;99.90;;;;;;5094987;28;20051;-68
2021/08/29 09:38:24;;;;;;;11.27;3.55;;;17.40;99.90;;;;;;5096319;28;20047;-68
2021/08/29 09:40:49;;;;;;;7.40;2.92;;;17.30;99.90;;;;;;5096504;28;20490;-68
2021/08/29 09:43:15;;;;;;;6.75;2.63;;;17.30;99.90;;;;;;5106289;28;20064;-68
2021/08/29 09:45:43;;;;;;;11.98;2.97;;;17.30;99.90;;;;;;5097493;27;20058;-68
2021/08/29 09:48:15;;;;;;;6.20;2.58;;;17.20;99.90;;;;;;5096607;28;20058;-68
2021/08/29 09:50:44;;;;;;;5.35;2.55;;;17.20;99.90;;;;;;5097110;28;20044;-67
2021/08/29 09:53:16;;;;;;;8.68;2.75;;;17.20;99.90;;;;;;5106613;28;20413;-67
2021/08/29 09:55:44;;;;;;;14.20;2.50;;;17.20;99.90;;;;;;5100730;28;20384;-67
2021/08/29 09:58:26;;;;;;;7.82;2.92;;;17.20;99.90;;;;;;5099664;28;20039;-68
2021/08/29 10:01:15;;;;;;;11.05;2.85;;;17.20;99.90;;;;;;5100053;28;20040;-68
2021/08/29 10:03:49;;;;;;;10.18;2.33;;;17.30;99.90;;;;;;5100781;28;20126;-68
2021/08/29 10:06:18;;;;;;;6.15;2.65;;;17.30;99.90;;;;;;5106194;28;20032;-68
2021/08/29 10:08:47;;;;;;;5.10;2.55;;;17.30;99.90;;;;;;5101917;27;20588;-67
2021/08/29 10:11:13;;;;;;;5.80;2.13;;;17.30;99.90;;;;;;5103600;27;20044;-67
2021/08/29 10:13:40;;;;;;;8.38;2.70;;;17.40;99.90;;;;;;5129625;27;20127;-67
2021/08/29 10:16:06;;;;;;;7.22;2.05;;;17.40;99.90;;;;;;5104227;27;20046;-67
2021/08/29 10:18:36;;;;;;;6.97;2.70;;;17.40;99.90;;;;;;5100150;28;20044;-67
2021/08/29 10:21:02;;;;;;;6.38;2.20;;;17.40;99.90;;;;;;5102190;27;20046;-67
2021/08/29 10:23:29;;;;;;;8.80;1.85;;;17.40;99.90;;;;;;5101600;27;20107;-67
2021/08/29 10:25:56;;;;;;;7.18;2.13;;;17.40;99.90;;;;;;5102058;28;20088;-67
2021/08/29 10:28:26;;;;;;;5.88;1.95;;;17.40;99.90;;;;;;5104163;28;20435;-67
2021/08/29 10:30:55;;;;;;;4.47;2.00;;;17.30;99.90;;;;;;5089171;28;20123;-67
2021/08/29 10:33:22;;;;;;;7.90;2.15;;;17.20;99.90;;;;;;5102981;28;20700;-67
2021/08/29 10:35:49;;;;;;;6.85;2.28;;;17.20;99.90;;;;;;5131481;27;20051;-67
2021/08/29 10:38:17;;;;;;;6.45;2.38;;;17.20;99.90;;;;;;5104816;27;20035;-67
2021/08/29 10:40:43;;;;;;;6.60;1.90;;;17.20;99.90;;;;;;5108652;28;20126;-67
2021/08/29 10:43:09;;;;;;;5.43;2.30;;;17.20;99.90;;;;;;5102816;27;20574;-67
2021/08/29 10:45:35;;;;;;;7.32;2.10;;;17.10;99.90;;;;;;5096781;27;20044;-67
2021/08/29 10:48:03;;;;;;;3.63;1.70;;;17.10;99.90;;;;;;5106597;27;20044;-68
2021/08/29 10:50:30;;;;;;;9.18;2.63;;;17.20;99.90;;;;;;5103380;27;20118;-67
2021/08/29 10:52:55;;;;;;;8.93;1.88;;;17.10;99.90;;;;;;5105464;27;20100;-67
2021/08/29 10:55:30;;;;;;;7.07;2.38;;;17.20;99.90;;;;;;5102161;27;20044;-68
2021/08/29 10:58:02;;;;;;;6.63;2.90;;;17.20;99.90;;;;;;5128888;27;20287;-68
2021/08/29 11:00:28;;;;;;;6.57;2.30;;;17.20;99.90;;;;;;5091849;27;20088;-68
2021/08/29 11:02:54;;;;;;;3.05;1.67;;;17.30;99.90;;;;;;5089888;27;20401;-68
2021/08/29 11:05:29;;;;;;;7.70;2.30;;;17.30;99.90;;;;;;5093899;27;20512;-68
2021/08/29 11:07:58;;;;;;;8.27;2.60;;;17.40;99.90;;;;;;5094819;27;20119;-68
2021/08/29 11:10:40;;;;;;;5.35;2.10;;;17.40;99.90;;;;;;5098130;27;20501;-68
2021/08/29 11:13:28;;;;;;;5.60;2.13;;;17.50;99.90;;;;;;5100365;27;20051;-68
2021/08/29 11:16:12;;;;;;;4.57;1.90;;;17.60;99.90;;;;;;5126000;27;20477;-68
2021/08/29 11:18:59;;;;;;;5.18;2.08;;;17.70;99.90;;;;;;5131192;27;20093;-68
2021/08/29 11:21:34;;;;;;;4.57;1.92;;;17.70;99.90;;;;;;5096613;28;20630;-68
2021/08/29 11:24:00;;;;;;;6.17;2.10;;;17.70;99.90;;;;;;5103612;27;20081;-68
2021/08/29 11:26:35;;;;;;;7.53;2.22;;;17.70;99.90;;;;;;5105353;27;20696;-68
2021/08/29 11:29:01;;;;;;;3.42;1.70;;;17.70;99.90;;;;;;5104356;27;20490;-68
2021/08/29 11:31:49;;;;;;;5.75;2.30;;;17.70;99.90;;;;;;5104377;27;20107;-68
2021/08/29 11:34:14;;;;;;;5.93;2.47;;;17.70;99.90;;;;;;5104327;27;20043;-69
2021/08/29 11:36:40;;;;;;;4.95;2.05;;;17.70;99.90;;;;;;5095830;28;20038;-68
2021/08/29 11:39:31;;;;;;;6.07;2.22;;;17.70;99.90;;;;;;5104410;28;20075;-68
2021/08/29 11:42:14;;;;;;;7.57;3.03;;;17.70;99.90;;;;;;5099430;28;20123;-68
2021/08/29 11:44:39;;;;;;;5.15;1.95;;;17.70;99.90;;;;;;5098090;27;20081;-68
2021/08/29 11:47:06;;;;;;;4.22;2.03;;;17.70;99.90;;;;;;5100709;28;20043;-68
2021/08/29 11:49:32;;;;;;;3.08;1.83;;;17.70;99.90;;;;;;5102555;27;20360;-68
2021/08/29 11:51:58;;;;;;;4.43;2.17;;;17.70;99.90;;;;;;5103610;28;20050;-68
2021/08/29 11:54:24;;;;;;;4.00;2.08;;;17.70;99.90;;;;;;5103894;27;20387;-68
2021/08/29 11:56:49;;;;;;;4.90;2.40;;;17.70;99.90;;;;;;5103562;27;20478;-68
2021/08/29 11:59:28;;;;;;;5.47;2.30;;;17.70;99.90;;;;;;5100838;28;20530;-71
2021/08/29 12:01:55;;;;;;;7.15;2.03;;;17.70;99.90;;;;;;5101876;27;20091;-70
2021/08/29 12:04:21;;;;;;;5.20;2.35;;;17.70;99.90;;;;;;5130303;27;20074;-70
2021/08/29 12:06:53;;;;;;;12.73;2.58;;;17.70;99.90;;;;;;5132038;27;20062;-70
2021/08/29 12:09:25;;;;;;;2.67;1.83;;;17.70;99.90;;;;;;5102427;27;20040;-70
2021/08/29 12:11:51;;;;;;;6.70;2.50;;;17.70;99.90;;;;;;5099734;28;20040;-70
2021/08/29 12:14:25;;;;;;;6.85;2.13;;;17.70;99.90;;;;;;5104395;27;20051;-70
2021/08/29 12:16:53;;;;;;;6.53;2.38;;;17.70;99.90;;;;;;5101422;27;20496;-71
2021/08/29 12:19:23;;;;;;;6.65;2.45;;;17.70;99.90;;;;;;5097075;27;20036;-70
2021/08/29 12:21:50;;;;;;;7.95;2.83;;;17.60;99.90;;;;;;5098286;27;20043;-70
2021/08/29 12:24:24;;;;;;;5.28;2.30;;;17.60;99.90;;;;;;5106904;28;20039;-70
2021/08/29 12:27:14;;;;;;;5.63;3.05;;;17.60;99.90;;;;;;5104505;27;20070;-70
2021/08/29 12:29:47;;;;;;;5.07;2.25;;;17.60;99.90;;;;;;5099127;27;20132;-70
2021/08/29 12:32:23;;;;;;;4.28;2.20;;;17.60;99.90;;;;;;5100397;27;20050;-70
2021/08/29 12:35:00;;;;;;;6.95;2.60;;;17.60;99.90;;;;;;5105896;27;20092;-70
2021/08/29 12:37:29;;;;;;;7.47;2.60;;;17.60;99.90;;;;;;5100967;28;20035;-70
2021/08/29 12:39:56;;;;;;;4.90;2.90;;;17.60;99.90;;;;;;5096656;28;20131;-70
2021/08/29 12:42:24;;;;;;;6.68;2.38;;;17.60;99.90;;;;;;5100071;28;20051;-70
2021/08/29 12:44:51;;;;;;;5.90;2.28;;;17.60;99.90;;;;;;5103175;27;21772;-70